JOW YCBG-YCBG
Flight info
| Callsign | JOW |
|---|---|
| Flight time | 0h 52m |
| Altitude | 4500 |
| Route | VFR |
| Aircraft | B06/L-SDFGIR/S |
Departure
| Time | 2026-04-22 08:57 |
|---|---|
| Airport | Cambridge Aerodrome (YCBG) |
Arrival
| Time | 2026-04-22 09:49 |
|---|---|
| Airport | Cambridge Aerodrome (YCBG) |
| Time | Latitude | Longitude | Altitude | Speed | Heading |
|---|---|---|---|---|---|
| 2026-04-22 08:17 | -42.82938 | 147.47511 | 36 ft | 0 kts | 77° |
| 2026-04-22 08:21 | -42.82939 | 147.47512 | 40 ft | 1 kts | 64° |
| 2026-04-22 08:21 | -42.82931 | 147.47531 | 51 ft | 10 kts | 63° |
| 2026-04-22 08:22 | -42.82910 | 147.47571 | 62 ft | 5 kts | 19° |
| 2026-04-22 08:22 | -42.82889 | 147.47596 | 53 ft | 4 kts | 49° |
| 2026-04-22 08:22 | -42.82891 | 147.47619 | 56 ft | 2 kts | 346° |
| 2026-04-22 08:22 | -42.82891 | 147.47618 | 60 ft | 2 kts | 5° |
| 2026-04-22 08:23 | -42.82889 | 147.47620 | 66 ft | 4 kts | 323° |
| 2026-04-22 08:23 | -42.82880 | 147.47591 | 50 ft | 5 kts | 257° |
| 2026-04-22 08:23 | -42.82912 | 147.47568 | 47 ft | 8 kts | 257° |
| 2026-04-22 08:23 | -42.82927 | 147.47529 | 44 ft | 5 kts | 272° |
| 2026-04-22 08:24 | -42.82937 | 147.47517 | 46 ft | 2 kts | 84° |
| 2026-04-22 08:24 | -42.82937 | 147.47518 | 49 ft | 1 kts | 83° |
| 2026-04-22 08:24 | -42.82937 | 147.47513 | 36 ft | 0 kts | 85° |
| 2026-04-22 08:41 | -42.82935 | 147.47538 | 52 ft | 5 kts | 83° |
| 2026-04-22 08:41 | -42.82946 | 147.47612 | 50 ft | 11 kts | 81° |
| 2026-04-22 08:41 | -42.82958 | 147.47684 | 46 ft | 4 kts | 65° |
| 2026-04-22 08:42 | -42.82944 | 147.47710 | 55 ft | 4 kts | 18° |
| 2026-04-22 08:42 | -42.82918 | 147.47716 | 50 ft | 4 kts | 324° |
| 2026-04-22 08:42 | -42.82909 | 147.47708 | 50 ft | 3 kts | 283° |
| 2026-04-22 08:42 | -42.82904 | 147.47692 | 49 ft | 3 kts | 239° |
| 2026-04-22 08:43 | -42.82919 | 147.47682 | 46 ft | 2 kts | 216° |
| 2026-04-22 08:43 | -42.82922 | 147.47680 | 40 ft | 1 kts | 206° |
| 2026-04-22 08:43 | -42.82923 | 147.47682 | 35 ft | 0 kts | 200° |
| 2026-04-22 08:47 | -42.82923 | 147.47681 | 35 ft | 0 kts | 192° |
| 2026-04-22 08:47 | -42.82923 | 147.47680 | 35 ft | 0 kts | 192° |
| 2026-04-22 08:55 | -42.82927 | 147.47679 | 65 ft | 10 kts | 92° |
| 2026-04-22 08:55 | -42.82918 | 147.48008 | 179 ft | 59 kts | 78° |
| 2026-04-22 08:55 | -42.82901 | 147.48692 | 341 ft | 80 kts | 73° |
| 2026-04-22 08:56 | -42.82664 | 147.49462 | 442 ft | 98 kts | 67° |
| 2026-04-22 08:56 | -42.82555 | 147.50454 | 476 ft | 116 kts | 88° |
| 2026-04-22 08:56 | -42.82705 | 147.51594 | 399 ft | 132 kts | 102° |
| 2026-04-22 08:56 | -42.83040 | 147.52703 | 516 ft | 123 kts | 118° |
| 2026-04-22 08:57 | -42.83701 | 147.53358 | 557 ft | 130 kts | 152° |
| 2026-04-22 08:57 | -42.84045 | 147.53618 | 724 ft | 116 kts | 143° |
| 2026-04-22 08:57 | -42.84421 | 147.54588 | 777 ft | 122 kts | 106° |
| 2026-04-22 08:57 | -42.84739 | 147.55682 | 785 ft | 129 kts | 109° |
| 2026-04-22 08:58 | -42.84935 | 147.56886 | 759 ft | 130 kts | 94° |
| 2026-04-22 08:58 | -42.84935 | 147.58085 | 885 ft | 122 kts | 85° |
| 2026-04-22 08:58 | -42.84928 | 147.59249 | 959 ft | 124 kts | 89° |
| 2026-04-22 08:58 | -42.84941 | 147.59729 | 971 ft | 126 kts | 89° |
| 2026-04-22 08:59 | -42.85028 | 147.60857 | 1006 ft | 139 kts | 94° |
| 2026-04-22 08:59 | -42.85098 | 147.62163 | 1153 ft | 141 kts | 90° |
| 2026-04-22 08:59 | -42.85131 | 147.63459 | 1137 ft | 127 kts | 89° |
| 2026-04-22 08:59 | -42.85165 | 147.64607 | 1195 ft | 115 kts | 87° |
| 2026-04-22 09:00 | -42.85153 | 147.65482 | 1225 ft | 110 kts | 85° |
| 2026-04-22 09:00 | -42.85150 | 147.65572 | 1226 ft | 111 kts | 84° |
| 2026-04-22 09:00 | -42.85103 | 147.66114 | 1204 ft | 113 kts | 76° |
| 2026-04-22 09:01 | -42.85083 | 147.66243 | 1187 ft | 114 kts | 75° |
| 2026-04-22 09:01 | -42.84883 | 147.67309 | 1186 ft | 118 kts | 70° |
| 2026-04-22 09:02 | -42.84647 | 147.68381 | 1188 ft | 119 kts | 71° |
| 2026-04-22 09:02 | -42.84423 | 147.69484 | 1198 ft | 120 kts | 72° |
| 2026-04-22 09:02 | -42.84203 | 147.70561 | 1221 ft | 120 kts | 70° |
| 2026-04-22 09:02 | -42.83927 | 147.71648 | 1226 ft | 121 kts | 63° |
| 2026-04-22 09:03 | -42.83555 | 147.72706 | 1175 ft | 125 kts | 57° |
| 2026-04-22 09:03 | -42.83118 | 147.73714 | 1158 ft | 123 kts | 55° |
| 2026-04-22 09:03 | -42.82701 | 147.74690 | 1187 ft | 119 kts | 57° |
| 2026-04-22 09:03 | -42.82253 | 147.75643 | 1153 ft | 122 kts | 50° |
| 2026-04-22 09:04 | -42.81748 | 147.76569 | 1106 ft | 122 kts | 50° |
| 2026-04-22 09:04 | -42.81230 | 147.77485 | 1090 ft | 122 kts | 49° |
| 2026-04-22 09:04 | -42.80691 | 147.78374 | 1084 ft | 118 kts | 44° |
| 2026-04-22 09:04 | -42.80310 | 147.78881 | 1066 ft | 117 kts | 38° |
| 2026-04-22 09:05 | -42.80124 | 147.79139 | 1078 ft | 116 kts | 41° |
| 2026-04-22 09:05 | -42.79575 | 147.79964 | 1079 ft | 119 kts | 45° |
| 2026-04-22 09:05 | -42.79173 | 147.80603 | 1193 ft | 113 kts | 45° |
| 2026-04-22 09:06 | -42.78811 | 147.81161 | 1359 ft | 107 kts | 44° |
| 2026-04-22 09:06 | -42.78339 | 147.81972 | 1504 ft | 108 kts | 50° |
| 2026-04-22 09:06 | -42.77942 | 147.82868 | 1576 ft | 118 kts | 57° |
| 2026-04-22 09:07 | -42.77539 | 147.83889 | 1548 ft | 122 kts | 56° |
| 2026-04-22 09:07 | -42.77139 | 147.84890 | 1523 ft | 119 kts | 57° |
| 2026-04-22 09:08 | -42.76828 | 147.85731 | 1517 ft | 120 kts | 59° |
| 2026-04-22 09:08 | -42.76448 | 147.86729 | 1523 ft | 120 kts | 57° |
| 2026-04-22 09:08 | -42.76076 | 147.87711 | 1614 ft | 119 kts | 56° |
| 2026-04-22 09:08 | -42.75676 | 147.88735 | 1682 ft | 121 kts | 52° |
| 2026-04-22 09:09 | -42.75202 | 147.89732 | 1646 ft | 125 kts | 49° |
| 2026-04-22 09:09 | -42.74645 | 147.90635 | 1535 ft | 126 kts | 40° |
| 2026-04-22 09:09 | -42.73983 | 147.91465 | 1323 ft | 130 kts | 33° |
| 2026-04-22 09:09 | -42.73358 | 147.92323 | 1181 ft | 131 kts | 50° |
| 2026-04-22 09:10 | -42.72854 | 147.93328 | 1049 ft | 123 kts | 43° |
| 2026-04-22 09:10 | -42.72221 | 147.93915 | 1013 ft | 85 kts | 17° |
| 2026-04-22 09:10 | -42.71825 | 147.93937 | 1101 ft | 32 kts | 324° |
| 2026-04-22 09:10 | -42.71795 | 147.93722 | 846 ft | 28 kts | 253° |
| 2026-04-22 09:11 | -42.71930 | 147.93599 | 385 ft | 19 kts | 228° |
| 2026-04-22 09:11 | -42.71977 | 147.93597 | 135 ft | 2 kts | 289° |
| 2026-04-22 09:11 | -42.71962 | 147.93569 | 137 ft | 4 kts | 279° |
| 2026-04-22 09:11 | -42.71971 | 147.93484 | 110 ft | 9 kts | 171° |
| 2026-04-22 09:12 | -42.71981 | 147.93473 | 100 ft | 3 kts | 89° |
| 2026-04-22 09:12 | -42.71983 | 147.93488 | 82 ft | 1 kts | 114° |
| 2026-04-22 09:12 | -42.71983 | 147.93496 | 72 ft | 2 kts | 107° |
| 2026-04-22 09:12 | -42.71983 | 147.93500 | 65 ft | 0 kts | 113° |
| 2026-04-22 09:17 | -42.71994 | 147.93506 | 66 ft | 6 kts | 114° |
| 2026-04-22 09:18 | -42.71896 | 147.93579 | 172 ft | 32 kts | 344° |
| 2026-04-22 09:18 | -42.71851 | 147.93467 | 285 ft | 27 kts | 297° |
| 2026-04-22 09:18 | -42.71847 | 147.93455 | 286 ft | 27 kts | 301° |
| 2026-04-22 09:18 | -42.71921 | 147.93580 | 298 ft | 63 kts | 194° |
| 2026-04-22 09:19 | -42.72438 | 147.93464 | 490 ft | 82 kts | 188° |
| 2026-04-22 09:19 | -42.72978 | 147.93461 | 964 ft | 70 kts | 193° |
| 2026-04-22 09:19 | -42.73560 | 147.93675 | 1058 ft | 108 kts | 170° |
| 2026-04-22 09:19 | -42.74287 | 147.93946 | 1238 ft | 107 kts | 170° |
| 2026-04-22 09:20 | -42.75054 | 147.94286 | 1286 ft | 124 kts | 160° |
| 2026-04-22 09:20 | -42.75884 | 147.94776 | 1354 ft | 129 kts | 165° |
| 2026-04-22 09:20 | -42.76741 | 147.95122 | 1477 ft | 129 kts | 167° |
| 2026-04-22 09:20 | -42.77626 | 147.95438 | 1511 ft | 134 kts | 168° |
| 2026-04-22 09:21 | -42.78031 | 147.95615 | 1481 ft | 137 kts | 166° |
| 2026-04-22 09:21 | -42.78963 | 147.95978 | 1395 ft | 143 kts | 168° |
| 2026-04-22 09:21 | -42.79341 | 147.96103 | 1433 ft | 139 kts | 169° |
| 2026-04-22 09:21 | -42.79417 | 147.96131 | 1438 ft | 139 kts | 168° |
| 2026-04-22 09:22 | -42.80371 | 147.96398 | 1444 ft | 137 kts | 176° |
| 2026-04-22 09:22 | -42.81307 | 147.96524 | 1482 ft | 133 kts | 179° |
| 2026-04-22 09:22 | -42.82204 | 147.96616 | 1539 ft | 130 kts | 179° |
| 2026-04-22 09:22 | -42.83103 | 147.96669 | 1546 ft | 130 kts | 185° |
| 2026-04-22 09:23 | -42.83765 | 147.96673 | 1573 ft | 132 kts | 182° |
| 2026-04-22 09:23 | -42.84256 | 147.96713 | 1605 ft | 130 kts | 178° |
| 2026-04-22 09:23 | -42.85142 | 147.97028 | 1446 ft | 138 kts | 158° |
| 2026-04-22 09:23 | -42.86010 | 147.97602 | 1216 ft | 141 kts | 159° |
| 2026-04-22 09:24 | -42.86950 | 147.97903 | 955 ft | 140 kts | 180° |
| 2026-04-22 09:24 | -42.87715 | 147.97237 | 674 ft | 128 kts | 240° |
| 2026-04-22 09:24 | -42.88083 | 147.96423 | 660 ft | 110 kts | 237° |
| 2026-04-22 09:25 | -42.88306 | 147.96043 | 653 ft | 98 kts | 232° |
| 2026-04-22 09:25 | -42.88781 | 147.95512 | 560 ft | 84 kts | 214° |
| 2026-04-22 09:25 | -42.89293 | 147.95247 | 451 ft | 65 kts | 229° |
| 2026-04-22 09:25 | -42.89327 | 147.94821 | 355 ft | 37 kts | 310° |
| 2026-04-22 09:26 | -42.89150 | 147.94676 | 228 ft | 25 kts | 346° |
| 2026-04-22 09:26 | -42.89015 | 147.94640 | 107 ft | 13 kts | 337° |
| 2026-04-22 09:26 | -42.89004 | 147.94637 | 92 ft | 12 kts | 338° |
| 2026-04-22 09:26 | -42.88965 | 147.94636 | 26 ft | 1 kts | 337° |
| 2026-04-22 09:27 | -42.88963 | 147.94635 | 17 ft | 1 kts | 337° |
| 2026-04-22 09:27 | -42.88962 | 147.94637 | 18 ft | 0 kts | 331° |
| 2026-04-22 09:36 | -42.88961 | 147.94636 | 24 ft | 1 kts | 333° |
| 2026-04-22 09:37 | -42.88919 | 147.94604 | 87 ft | 27 kts | 322° |
| 2026-04-22 09:37 | -42.88812 | 147.94185 | 251 ft | 64 kts | 289° |
| 2026-04-22 09:37 | -42.88667 | 147.93566 | 438 ft | 75 kts | 296° |
| 2026-04-22 09:37 | -42.88456 | 147.92813 | 567 ft | 93 kts | 297° |
| 2026-04-22 09:38 | -42.88150 | 147.91951 | 632 ft | 107 kts | 301° |
| 2026-04-22 09:38 | -42.87841 | 147.90994 | 723 ft | 113 kts | 297° |
| 2026-04-22 09:38 | -42.87490 | 147.89986 | 738 ft | 121 kts | 298° |
| 2026-04-22 09:38 | -42.87178 | 147.89239 | 778 ft | 122 kts | 302° |
| 2026-04-22 09:39 | -42.86889 | 147.88510 | 736 ft | 124 kts | 302° |
| 2026-04-22 09:39 | -42.86445 | 147.87479 | 717 ft | 127 kts | 303° |
| 2026-04-22 09:39 | -42.86029 | 147.86460 | 692 ft | 128 kts | 301° |
| 2026-04-22 09:39 | -42.85737 | 147.85606 | 820 ft | 119 kts | 293° |
| 2026-04-22 09:40 | -42.85435 | 147.84556 | 852 ft | 120 kts | 293° |
| 2026-04-22 09:40 | -42.85143 | 147.83495 | 891 ft | 120 kts | 294° |
| 2026-04-22 09:40 | -42.84815 | 147.82461 | 886 ft | 119 kts | 298° |
| 2026-04-22 09:40 | -42.84423 | 147.81430 | 893 ft | 122 kts | 298° |
| 2026-04-22 09:41 | -42.84114 | 147.80334 | 952 ft | 123 kts | 291° |
| 2026-04-22 09:41 | -42.83890 | 147.79214 | 998 ft | 126 kts | 284° |
| 2026-04-22 09:41 | -42.83751 | 147.78025 | 1009 ft | 127 kts | 279° |
| 2026-04-22 09:41 | -42.83636 | 147.76837 | 1049 ft | 124 kts | 280° |
| 2026-04-22 09:42 | -42.83558 | 147.75628 | 1017 ft | 130 kts | 277° |
| 2026-04-22 09:42 | -42.83487 | 147.74393 | 1043 ft | 131 kts | 277° |
| 2026-04-22 09:42 | -42.83392 | 147.73165 | 1067 ft | 130 kts | 278° |
| 2026-04-22 09:42 | -42.83295 | 147.71949 | 1131 ft | 129 kts | 277° |
| 2026-04-22 09:43 | -42.83247 | 147.70705 | 1149 ft | 132 kts | 274° |
| 2026-04-22 09:43 | -42.83246 | 147.69491 | 1189 ft | 126 kts | 274° |
| 2026-04-22 09:43 | -42.83179 | 147.68281 | 1130 ft | 127 kts | 277° |
| 2026-04-22 09:43 | -42.83104 | 147.67108 | 1146 ft | 123 kts | 277° |
| 2026-04-22 09:44 | -42.83034 | 147.65961 | 1221 ft | 120 kts | 276° |
| 2026-04-22 09:44 | -42.82987 | 147.64819 | 1219 ft | 123 kts | 275° |
| 2026-04-22 09:44 | -42.82959 | 147.64100 | 1134 ft | 122 kts | 274° |
| 2026-04-22 09:44 | -42.82939 | 147.62987 | 1075 ft | 117 kts | 275° |
| 2026-04-22 09:45 | -42.82898 | 147.61870 | 1078 ft | 119 kts | 275° |
| 2026-04-22 09:45 | -42.82877 | 147.61285 | 1068 ft | 118 kts | 276° |
| 2026-04-22 09:45 | -42.82856 | 147.60449 | 1050 ft | 121 kts | 274° |
| 2026-04-22 09:45 | -42.82954 | 147.59342 | 1111 ft | 116 kts | 257° |
| 2026-04-22 09:46 | -42.83172 | 147.58269 | 1124 ft | 119 kts | 259° |
| 2026-04-22 09:46 | -42.83284 | 147.57684 | 1140 ft | 123 kts | 259° |
| 2026-04-22 09:46 | -42.83378 | 147.57165 | 1169 ft | 123 kts | 258° |
| 2026-04-22 09:47 | -42.83507 | 147.56459 | 1162 ft | 125 kts | 257° |
| 2026-04-22 09:47 | -42.83738 | 147.55296 | 1097 ft | 126 kts | 256° |
| 2026-04-22 09:47 | -42.83948 | 147.54183 | 1129 ft | 117 kts | 266° |
| 2026-04-22 09:47 | -42.83855 | 147.53133 | 1120 ft | 105 kts | 285° |
| 2026-04-22 09:48 | -42.83670 | 147.52239 | 1124 ft | 91 kts | 286° |
| 2026-04-22 09:48 | -42.83537 | 147.51427 | 1004 ft | 88 kts | 284° |
| 2026-04-22 09:48 | -42.83395 | 147.50626 | 860 ft | 84 kts | 287° |
| 2026-04-22 09:48 | -42.83241 | 147.49867 | 677 ft | 81 kts | 288° |
| 2026-04-22 09:49 | -42.83114 | 147.49155 | 423 ft | 73 kts | 290° |
| 2026-04-22 09:49 | -42.83004 | 147.48568 | 245 ft | 53 kts | 289° |
| 2026-04-22 09:49 | -42.82924 | 147.48168 | 108 ft | 37 kts | 291° |
| 2026-04-22 09:49 | -42.82884 | 147.47952 | 62 ft | 11 kts | 293° |
| 2026-04-22 09:50 | -42.82862 | 147.47846 | 56 ft | 18 kts | 289° |
| 2026-04-22 09:50 | -42.82827 | 147.47673 | 58 ft | 14 kts | 296° |
| 2026-04-22 09:50 | -42.82823 | 147.47600 | 45 ft | 6 kts | 225° |
| 2026-04-22 09:50 | -42.82854 | 147.47586 | 54 ft | 4 kts | 203° |
| 2026-04-22 09:51 | -42.82904 | 147.47569 | 49 ft | 7 kts | 219° |
| 2026-04-22 09:51 | -42.82926 | 147.47531 | 53 ft | 3 kts | 238° |
| 2026-04-22 09:51 | -42.82938 | 147.47522 | 44 ft | 1 kts | 193° |
| 2026-04-22 09:51 | -42.82937 | 147.47526 | 43 ft | 2 kts | 208° |
| 2026-04-22 09:52 | -42.82933 | 147.47520 | 35 ft | 0 kts | 228° |
| 2026-04-22 09:52 | -42.82933 | 147.47508 | 42 ft | 3 kts | 178° |
| 2026-04-22 09:52 | -42.82937 | 147.47509 | 36 ft | 0 kts | 86° |